Terminal Aerodrome Forecast
Issued by NWS Charleston, WV

Current Version | Previous Version | Graphics & Text | Print | Product List | Glossary On
Versions: 1 2 3 4 5 6 7 8 9 10 11 12 13 14 15 16 17 18 19 20 21 22 23 24 25
332
FTUS41 KRLX 270532
TAFCRW
TAF
KCRW 270532Z 2706/2806 VRB03KT 5SM SHRA OVC014
     FM271100 VRB03KT 5SM BR OVC010
     FM271400 VRB03KT P6SM BKN015
     FM271700 VRB03KT P6SM SCT035
     FM272300 VRB03KT 4SM SHRA VCTS BKN040CB
     FM280500 00000KT P6SM BKN080=

USA.gov is the U.S. government's official web portal to all federal, state and local government web resources and services.